createdAt,value
2022-08-03T00:00:20.359Z,58.76
2022-08-03T00:02:47.076Z,57.01
2022-08-03T00:05:13.580Z,57.56
2022-08-03T00:07:41.180Z,57.09
2022-08-03T00:10:08.119Z,57.97
2022-08-03T00:12:36.323Z,58.87
2022-08-03T00:15:03.172Z,58.05
2022-08-03T00:17:52.131Z,58.06
2022-08-03T00:20:19.982Z,58.64
2022-08-03T00:22:46.533Z,60.36
2022-08-03T00:25:13.375Z,60.07
2022-08-03T00:27:39.877Z,60.02
2022-08-03T00:30:07.295Z,60.82
2022-08-03T00:32:33.889Z,60.67
2022-08-03T00:35:00.414Z,60.32
2022-08-03T00:37:41.704Z,60.17
2022-08-03T00:40:11.393Z,60.73
2022-08-03T00:42:58.825Z,59.53
2022-08-03T00:45:36.745Z,60.19
2022-08-03T00:48:04.898Z,60.53
2022-08-03T00:50:35.900Z,60.54
2022-08-03T00:53:06.289Z,60.14
2022-08-03T00:55:33.050Z,60.60
2022-08-03T00:57:59.702Z,61.37
2022-08-03T01:00:27.665Z,60.93
2022-08-03T01:02:55.793Z,61.01
2022-08-03T01:05:22.661Z,61.08
2022-08-03T01:08:25.924Z,60.97
2022-08-03T01:12:01.193Z,61.16
2022-08-03T01:14:38.368Z,62.14
2022-08-03T01:17:16.928Z,61.58
2022-08-03T01:19:49.120Z,61.49
2022-08-03T01:22:44.884Z,62.46
2022-08-03T01:25:23.424Z,63.32
2022-08-03T01:28:11.368Z,62.62
2022-08-03T01:30:42.048Z,62.71
2022-08-03T01:33:35.052Z,62.74
2022-08-03T01:36:05.465Z,62.75
2022-08-03T01:38:42.048Z,63.17
2022-08-03T01:41:13.711Z,62.92
2022-08-03T01:44:28.304Z,63.08
2022-08-03T01:46:32.865Z,64.39
2022-08-03T01:49:01.204Z,63.79
2022-08-03T01:51:58.506Z,64.13
2022-08-03T01:54:27.463Z,64.36
2022-08-03T01:56:57.518Z,63.70
2022-08-03T01:59:26.332Z,64.69
2022-08-03T02:02:28.835Z,64.31
2022-08-03T02:04:42.533Z,64.25
2022-08-03T02:07:10.427Z,64.87
2022-08-03T02:09:41.505Z,64.99
2022-08-03T02:12:13.964Z,66.07
2022-08-03T02:14:42.322Z,65.52
2022-08-03T02:17:10.593Z,66.11
2022-08-03T02:19:38.590Z,66.20
2022-08-03T02:22:08.433Z,65.71
2022-08-03T02:24:35.145Z,65.24
2022-08-03T02:27:06.157Z,65.77
2022-08-03T02:29:39.368Z,66.27
2022-08-03T02:32:10.489Z,65.36
2022-08-03T02:34:39.448Z,64.91
2022-08-03T02:37:08.414Z,65.20
2022-08-03T02:39:36.836Z,65.45
2022-08-03T02:42:05.571Z,65.76
2022-08-03T02:44:34.741Z,65.36
2022-08-03T02:47:05.146Z,66.46
2022-08-03T02:49:41.127Z,66.18
2022-08-03T02:52:19.872Z,66.31
2022-08-03T02:54:49.189Z,65.81
2022-08-03T02:57:17.354Z,66.30
2022-08-03T02:59:44.649Z,67.80
2022-08-03T03:02:12.661Z,68.31
2022-08-03T03:04:41.207Z,68.33
2022-08-03T03:07:28.853Z,69.24
2022-08-03T03:09:58.353Z,72.88
2022-08-03T03:12:26.370Z,70.36
2022-08-03T03:14:52.903Z,69.95
2022-08-03T03:17:21.137Z,69.31
2022-08-03T03:19:51.051Z,68.76
2022-08-03T03:22:18.774Z,69.25
2022-08-03T03:24:47.265Z,69.42
2022-08-03T03:27:16.495Z,69.57
2022-08-03T03:29:43.920Z,68.77
2022-08-03T03:32:10.782Z,69.89
2022-08-03T03:34:37.733Z,69.10
2022-08-03T03:37:05.235Z,69.43
2022-08-03T03:39:32.043Z,69.10
2022-08-03T03:42:00.226Z,70.23
2022-08-03T03:44:28.882Z,68.63
2022-08-03T03:46:57.795Z,68.44
2022-08-03T03:49:24.889Z,68.10
2022-08-03T03:51:55.578Z,67.93
2022-08-03T03:54:22.147Z,67.92
2022-08-03T03:56:52.365Z,68.24
2022-08-03T03:59:18.939Z,67.86
2022-08-03T04:01:45.879Z,68.03
2022-08-03T04:04:31.021Z,68.11
2022-08-03T04:07:15.777Z,67.61
2022-08-03T04:10:14.423Z,67.67
2022-08-03T04:12:49.872Z,67.31
2022-08-03T04:15:20.339Z,67.37
2022-08-03T04:17:48.183Z,67.69
2022-08-03T04:20:15.741Z,67.47
2022-08-03T04:22:42.615Z,67.46
2022-08-03T04:25:16.892Z,66.95
2022-08-03T04:27:43.990Z,67.23
2022-08-03T04:30:11.775Z,67.30
2022-08-03T04:32:44.148Z,67.47
2022-08-03T04:35:12.459Z,67.11
2022-08-03T04:37:43.172Z,67.44
2022-08-03T04:40:14.857Z,67.31
2022-08-03T04:42:43.434Z,67.01
2022-08-03T04:45:14.994Z,67.21
2022-08-03T04:47:42.442Z,67.13
2022-08-03T04:50:15.034Z,67.48
2022-08-03T04:52:43.560Z,67.74
2022-08-03T04:55:10.374Z,67.22
2022-08-03T04:57:37.023Z,66.89
2022-08-03T05:13:12.109Z,65.91
2022-08-03T05:15:43.173Z,65.59
2022-08-03T05:18:13.997Z,65.43
2022-08-03T05:20:40.858Z,65.21
2022-08-03T05:23:07.397Z,65.23
2022-08-03T05:25:33.863Z,65.41
2022-08-03T05:28:00.670Z,65.01
2022-08-03T05:30:33.436Z,64.71
2022-08-03T05:33:02.264Z,64.34
2022-08-03T05:36:00.984Z,64.40
2022-08-03T05:38:24.244Z,64.12
2022-08-03T05:41:22.581Z,63.69
2022-08-03T05:43:50.836Z,63.72
2022-08-03T05:46:17.492Z,63.51
2022-08-03T05:48:46.755Z,63.05
2022-08-03T05:51:13.489Z,63.39
2022-08-03T05:53:41.714Z,63.35
2022-08-03T05:56:13.583Z,62.66
2022-08-03T05:58:42.267Z,62.19
2022-08-03T06:01:08.883Z,62.38
2022-08-03T06:03:38.013Z,62.34
2022-08-03T06:06:04.613Z,62.04
2022-08-03T06:08:31.170Z,62.04
2022-08-03T06:11:00.760Z,61.41
2022-08-03T06:13:27.272Z,61.46
2022-08-03T06:15:53.812Z,61.37
2022-08-03T06:18:20.440Z,60.48
2022-08-03T06:20:49.307Z,59.80
2022-08-03T06:23:17.991Z,60.41
2022-08-03T06:25:45.405Z,60.03
2022-08-03T06:31:01.007Z,59.45
2022-08-03T06:34:30.151Z,59.90
2022-08-03T06:36:14.981Z,58.85
2022-08-03T06:38:41.549Z,59.22
2022-08-03T06:41:08.097Z,59.47
2022-08-03T06:43:38.006Z,58.41
2022-08-03T06:46:24.714Z,58.67
2022-08-03T06:48:53.148Z,57.63
2022-08-03T06:51:19.858Z,56.55
2022-08-03T06:53:46.544Z,56.67
2022-08-03T06:56:13.496Z,55.73
2022-08-03T06:58:40.173Z,56.28
2022-08-03T07:01:09.297Z,55.57
2022-08-03T07:03:35.874Z,55.07
2022-08-03T07:06:18.722Z,54.13
2022-08-03T07:08:45.289Z,54.27
2022-08-03T07:11:11.956Z,53.97
2022-08-03T07:13:41.163Z,52.59
2022-08-03T07:16:07.731Z,52.09
2022-08-03T07:18:34.356Z,52.67
2022-08-03T07:21:00.864Z,51.23
2022-08-03T07:23:27.343Z,51.32
2022-08-03T07:25:53.781Z,51.14
2022-08-03T07:28:20.727Z,50.81
2022-08-03T07:30:47.776Z,49.41
2022-08-03T07:33:15.081Z,49.88
2022-08-03T07:35:49.505Z,48.70
2022-08-03T07:38:16.340Z,49.95
2022-08-03T07:43:13.100Z,48.86
2022-08-03T07:45:39.712Z,47.78
2022-08-03T07:48:11.659Z,47.82
2022-08-03T07:50:38.968Z,47.09
2022-08-03T07:53:05.805Z,48.35
2022-08-03T07:55:32.701Z,46.56
2022-08-03T07:58:10.065Z,46.34
2022-08-03T08:00:37.059Z,45.57
2022-08-03T08:03:04.729Z,45.41
2022-08-03T08:05:33.957Z,44.84
2022-08-03T08:08:03.990Z,44.33
2022-08-03T08:10:31.235Z,43.74
2022-08-03T08:13:00.105Z,44.01
2022-08-03T08:15:26.717Z,43.42
2022-08-03T08:17:56.552Z,42.74
2022-08-03T08:20:31.327Z,42.41
2022-08-03T08:23:03.635Z,42.55
2022-08-03T08:25:50.321Z,41.22
2022-08-03T08:28:32.947Z,41.71
2022-08-03T08:31:02.279Z,41.63
2022-08-03T08:33:42.081Z,41.56
2022-08-03T08:36:15.951Z,40.98
2022-08-03T08:38:44.557Z,40.27
2022-08-03T08:41:12.453Z,39.06
2022-08-03T08:43:42.219Z,39.93
2022-08-03T08:46:23.145Z,39.11
2022-08-03T08:48:51.833Z,38.09
2022-08-03T08:51:20.295Z,38.85
2022-08-03T08:53:51.448Z,37.52
2022-08-03T08:56:26.551Z,38.61
2022-08-03T08:59:01.166Z,38.26
2022-08-03T09:01:33.777Z,37.38
2022-08-03T09:04:00.381Z,36.75
2022-08-03T09:06:26.984Z,37.17
2022-08-03T09:08:54.149Z,35.76
2022-08-03T09:12:01.052Z,35.80
2022-08-03T09:14:36.982Z,34.26
2022-08-03T09:17:06.052Z,34.07
2022-08-03T09:19:37.656Z,34.60
2022-08-03T09:22:16.624Z,34.31
2022-08-03T09:25:23.233Z,34.32
2022-08-03T09:27:50.461Z,33.45
2022-08-03T09:30:33.806Z,33.50
2022-08-03T09:33:08.371Z,33.01
2022-08-03T09:35:54.208Z,32.44
2022-08-03T09:38:26.481Z,31.41
2022-08-03T09:40:59.515Z,31.32
2022-08-03T09:43:28.555Z,31.53
2022-08-03T09:46:07.298Z,30.82
2022-08-03T09:48:35.013Z,29.04
2022-08-03T09:51:14.142Z,30.02
2022-08-03T09:53:59.323Z,29.57
2022-08-03T09:56:47.892Z,28.33
2022-08-03T09:59:24.209Z,27.55
2022-08-03T10:01:53.350Z,28.44
2022-08-03T10:04:20.391Z,26.83
2022-08-03T10:07:06.193Z,27.78
2022-08-03T10:09:35.976Z,25.91
2022-08-03T10:12:13.538Z,27.15
2022-08-03T10:14:45.303Z,26.52
2022-08-03T10:17:14.443Z,26.11
2022-08-03T10:19:43.793Z,26.12
2022-08-03T10:22:14.038Z,25.30
2022-08-03T10:25:00.996Z,26.07
2022-08-03T10:27:43.400Z,25.47
2022-08-03T10:30:11.723Z,25.19
2022-08-03T10:32:44.809Z,23.87
2022-08-03T10:35:19.637Z,23.38
2022-08-03T10:38:23.087Z,23.75
2022-08-03T10:40:58.778Z,24.19
2022-08-03T10:43:30.848Z,24.60
2022-08-03T10:45:58.108Z,25.29
2022-08-03T10:48:30.737Z,24.98
2022-08-03T10:50:57.670Z,25.03
2022-08-03T10:53:40.348Z,25.17
2022-08-03T10:56:49.670Z,24.46
2022-08-03T10:59:27.529Z,24.90
2022-08-03T11:01:58.651Z,23.94
2022-08-03T11:04:29.585Z,24.81
2022-08-03T11:07:28.390Z,24.23
2022-08-03T11:09:56.547Z,24.14
2022-08-03T11:12:30.529Z,23.86
2022-08-03T11:15:04.601Z,24.02
2022-08-03T11:17:32.849Z,22.72
2022-08-03T11:19:59.773Z,22.84
2022-08-03T11:22:50.955Z,23.57
2022-08-03T11:25:54.798Z,22.92
2022-08-03T11:28:29.067Z,22.63
2022-08-03T11:30:57.097Z,22.93
2022-08-03T11:33:31.133Z,22.54
2022-08-03T11:36:02.516Z,21.25
2022-08-03T11:38:29.138Z,22.00
2022-08-03T11:40:58.441Z,21.62
2022-08-03T11:43:33.084Z,22.01
2022-08-03T11:46:06.838Z,21.63
2022-08-03T11:48:37.476Z,21.23
2022-08-03T11:51:06.546Z,20.82
2022-08-03T11:53:33.575Z,20.05
2022-08-03T11:56:12.978Z,20.41
2022-08-03T11:59:16.737Z,19.39
2022-08-03T12:01:36.649Z,19.22
2022-08-03T12:04:10.776Z,19.40
2022-08-03T12:06:55.794Z,18.84
2022-08-03T12:09:22.512Z,19.56
2022-08-03T12:11:56.223Z,17.97
2022-08-03T12:14:50.294Z,18.23
2022-08-03T12:17:15.102Z,18.47
2022-08-03T12:19:43.137Z,17.51
2022-08-03T12:22:09.669Z,18.17
2022-08-03T12:24:47.490Z,17.16
2022-08-03T12:27:24.224Z,18.16
2022-08-03T12:29:57.251Z,18.78
2022-08-03T12:32:26.801Z,19.03
2022-08-03T12:34:53.442Z,19.07
2022-08-03T12:37:23.202Z,18.56
2022-08-03T12:40:02.178Z,19.20
2022-08-03T12:42:38.424Z,18.58
2022-08-03T12:45:28.154Z,18.42
2022-08-03T12:48:02.182Z,19.16
2022-08-03T12:50:34.095Z,19.13
2022-08-03T12:53:03.214Z,19.17
2022-08-03T12:55:57.244Z,18.65
2022-08-03T12:58:34.030Z,19.09
2022-08-03T13:01:01.849Z,18.88
2022-08-03T13:03:50.343Z,18.58
2022-08-03T13:06:28.435Z,18.84
2022-08-03T13:09:06.314Z,18.02
2022-08-03T13:11:55.507Z,18.89
2022-08-03T13:14:20.741Z,19.17
2022-08-03T13:16:51.405Z,18.54
2022-08-03T13:19:18.100Z,18.50
2022-08-03T13:22:01.716Z,18.49
2022-08-03T13:24:31.717Z,18.41
2022-08-03T13:26:59.333Z,18.46
2022-08-03T13:29:26.211Z,18.45
2022-08-03T13:31:52.868Z,18.17
2022-08-03T13:34:23.045Z,18.19
2022-08-03T13:39:57.244Z,18.97
2022-08-03T13:42:28.601Z,18.75
2022-08-03T13:44:55.286Z,18.12
2022-08-03T13:47:22.156Z,18.52
2022-08-03T13:49:54.361Z,18.52
2022-08-03T13:52:33.269Z,18.22
2022-08-03T13:55:00.578Z,18.73
2022-08-03T13:58:02.670Z,18.85
2022-08-03T14:00:26.524Z,19.47
2022-08-03T14:03:01.846Z,19.56
2022-08-03T14:05:33.535Z,19.31
2022-08-03T14:08:04.168Z,18.92
2022-08-03T14:10:36.691Z,19.44
2022-08-03T14:13:04.442Z,19.67
2022-08-03T14:15:37.778Z,19.14
2022-08-03T14:18:07.068Z,19.44
2022-08-03T14:20:47.709Z,19.26
2022-08-03T14:23:20.256Z,18.94
2022-08-03T14:25:56.274Z,19.06
2022-08-03T14:28:26.855Z,18.83
2022-08-03T14:30:55.770Z,18.76
2022-08-03T14:33:22.950Z,18.87
2022-08-03T14:35:50.245Z,18.43
2022-08-03T14:38:17.905Z,18.78
2022-08-03T14:40:44.772Z,18.32
2022-08-03T14:43:14.211Z,18.28
2022-08-03T14:45:41.424Z,19.60
2022-08-03T14:50:28.714Z,19.09
2022-08-03T14:50:55.373Z,18.99
2022-08-03T14:53:22.790Z,18.93
2022-08-03T14:55:51.539Z,18.75
2022-08-03T14:58:23.044Z,18.55
2022-08-03T15:00:51.880Z,18.33
2022-08-03T15:03:23.004Z,18.61
2022-08-03T15:05:51.057Z,18.62
2022-08-03T15:08:17.649Z,18.00
2022-08-03T15:10:45.347Z,18.02
2022-08-03T15:13:13.292Z,18.06
2022-08-03T15:15:40.308Z,17.73
2022-08-03T15:18:07.200Z,17.68
2022-08-03T15:20:43.877Z,17.57
2022-08-03T15:23:18.332Z,17.32
2022-08-03T15:26:03.567Z,15.33
2022-08-03T15:28:37.470Z,14.39
2022-08-03T15:31:05.888Z,12.98
2022-08-03T15:33:32.783Z,12.64
2022-08-03T15:36:01.935Z,12.64
2022-08-03T15:38:28.555Z,10.56
2022-08-03T15:40:55.588Z,11.16
2022-08-03T15:43:23.514Z,10.44
2022-08-03T15:46:12.816Z,10.01
2022-08-03T15:48:37.330Z,10.43
2022-08-03T15:51:05.314Z,10.88
2022-08-03T15:53:31.805Z,9.75
2022-08-03T15:56:05.242Z,9.44
2022-08-03T15:59:09.446Z,9.22
2022-08-03T16:01:25.443Z,9.31
2022-08-03T16:03:52.172Z,9.13
2022-08-03T16:06:18.825Z,8.79
2022-08-03T16:08:56.617Z,8.81
2022-08-03T16:11:23.443Z,8.65
2022-08-03T16:14:13.072Z,8.61
2022-08-03T16:16:42.339Z,7.92
2022-08-03T16:19:09.008Z,7.88
2022-08-03T16:21:47.310Z,7.61
2022-08-03T16:24:17.479Z,7.82
2022-08-03T16:26:50.881Z,8.24
2022-08-03T16:29:22.324Z,7.97
2022-08-03T16:31:50.965Z,8.78
2022-08-03T16:34:18.064Z,10.18
2022-08-03T16:36:45.662Z,11.56
2022-08-03T16:39:12.455Z,12.26
2022-08-03T16:41:53.923Z,12.56
2022-08-03T16:44:28.912Z,13.16
2022-08-03T16:46:55.694Z,13.74
2022-08-03T16:49:55.396Z,14.31
2022-08-03T16:52:10.460Z,15.47
2022-08-03T16:54:39.716Z,15.49
2022-08-03T16:57:07.215Z,16.48
2022-08-03T16:59:36.562Z,16.60
2022-08-03T17:02:10.186Z,17.65
2022-08-03T17:04:40.387Z,18.09
2022-08-03T17:07:08.948Z,18.60
2022-08-03T17:09:46.775Z,18.44
2022-08-03T17:12:16.791Z,19.16
2022-08-03T17:14:44.841Z,19.42
2022-08-03T17:17:17.899Z,19.26
2022-08-03T17:19:47.441Z,19.56
2022-08-03T17:22:23.888Z,19.93
2022-08-03T17:24:52.855Z,19.72
2022-08-03T17:28:48.763Z,19.88
2022-08-03T17:30:15.966Z,20.37
2022-08-03T17:32:52.622Z,20.87
2022-08-03T17:35:24.483Z,20.47
2022-08-03T17:38:03.703Z,20.66
2022-08-03T17:40:32.710Z,20.43
2022-08-03T17:43:00.994Z,20.94
2022-08-03T17:45:51.907Z,20.88
2022-08-03T17:48:18.470Z,21.13
2022-08-03T17:51:15.544Z,20.68
2022-08-03T17:54:18.373Z,21.39
2022-08-03T17:57:06.323Z,21.78
2022-08-03T18:00:27.425Z,21.78
2022-08-03T18:03:20.949Z,22.12
2022-08-03T18:06:08.976Z,22.63
2022-08-03T18:08:46.242Z,22.54
2022-08-03T18:11:19.814Z,23.01
2022-08-03T18:13:57.716Z,23.21
2022-08-03T18:16:30.075Z,23.06
2022-08-03T18:19:00.439Z,23.01
2022-08-03T18:22:01.998Z,23.37
2022-08-03T18:24:25.666Z,24.28
2022-08-03T18:26:55.482Z,23.44
2022-08-03T18:29:29.904Z,23.83
2022-08-03T18:32:03.214Z,24.06
2022-08-03T18:34:34.275Z,23.99
2022-08-03T18:37:04.353Z,24.42
2022-08-03T18:39:49.287Z,23.85
2022-08-03T18:42:19.749Z,24.85
2022-08-03T18:44:55.878Z,24.81
2022-08-03T18:47:52.866Z,24.65
2022-08-03T18:50:48.162Z,25.62
2022-08-03T18:54:03.569Z,25.44
2022-08-03T18:56:14.647Z,25.83
2022-08-03T18:59:02.478Z,26.01
2022-08-03T19:05:04.625Z,26.23
2022-08-03T19:07:36.962Z,26.59
2022-08-03T19:10:17.179Z,26.81
2022-08-03T19:12:51.245Z,27.98
2022-08-03T19:15:36.416Z,28.07
2022-08-03T19:18:11.857Z,28.29
2022-08-03T19:20:51.526Z,28.30
2022-08-03T19:28:56.654Z,28.24
2022-08-03T19:31:34.869Z,28.85
2022-08-03T19:34:15.560Z,28.44
2022-08-03T19:36:49.756Z,28.93
2022-08-03T19:39:22.534Z,30.15
2022-08-03T19:42:08.010Z,30.35
2022-08-03T19:44:50.505Z,30.39
2022-08-03T19:47:50.867Z,30.18
2022-08-03T19:50:20.733Z,30.13
2022-08-03T19:52:55.859Z,31.69
2022-08-03T19:55:49.219Z,32.36
2022-08-03T19:58:24.438Z,32.61
2022-08-03T20:01:19.150Z,33.49
2022-08-03T20:03:56.794Z,32.58
2022-08-03T20:06:26.699Z,33.11
2022-08-03T20:08:55.395Z,33.09
2022-08-03T20:15:06.882Z,33.83
2022-08-03T20:17:56.617Z,33.93
2022-08-03T20:20:37.634Z,34.31
2022-08-03T20:23:17.478Z,34.35
2022-08-03T20:25:59.789Z,33.69
2022-08-03T20:28:49.750Z,34.58
2022-08-03T20:31:32.543Z,35.07
2022-08-03T20:34:03.446Z,34.93
2022-08-03T20:36:36.281Z,35.05
2022-08-03T20:39:07.718Z,35.13
2022-08-03T20:41:35.937Z,35.69
2022-08-03T20:44:04.364Z,36.88
2022-08-03T20:46:44.124Z,37.57
2022-08-03T20:49:25.529Z,37.23
2022-08-03T20:51:53.690Z,37.05
2022-08-03T20:54:29.494Z,38.11
2022-08-03T20:57:04.182Z,36.93
2022-08-03T20:59:47.057Z,37.67
2022-08-03T21:02:30.112Z,36.76
2022-08-03T21:04:57.867Z,36.39
2022-08-03T21:10:15.475Z,37.78
2022-08-03T21:13:12.285Z,37.45
2022-08-03T21:13:15.443Z,38.36
2022-08-03T21:16:12.890Z,37.46
2022-08-03T21:18:45.793Z,37.40
2022-08-03T21:21:15.145Z,38.74
2022-08-03T21:23:48.798Z,38.69
2022-08-03T21:26:18.241Z,38.25
2022-08-03T21:28:46.717Z,38.31
2022-08-03T21:31:14.150Z,38.75
2022-08-03T21:33:49.643Z,38.95
2022-08-03T21:36:16.558Z,38.68
2022-08-03T21:38:44.004Z,38.80
2022-08-03T21:41:22.595Z,38.09
2022-08-03T21:43:49.129Z,38.63
2022-08-03T21:46:19.370Z,38.38
2022-08-03T21:48:51.285Z,38.93
2022-08-03T21:51:20.030Z,38.78
2022-08-03T21:54:02.491Z,39.28
2022-08-03T21:56:36.793Z,38.93
2022-08-03T21:59:08.633Z,39.77
2022-08-03T22:01:36.454Z,40.34
2022-08-03T22:04:11.867Z,39.91
2022-08-03T22:06:42.299Z,40.12
2022-08-03T22:09:12.334Z,39.49
2022-08-03T22:11:39.794Z,39.60
2022-08-03T22:14:06.457Z,40.14
2022-08-03T22:16:35.206Z,40.46
2022-08-03T22:19:01.752Z,40.59
2022-08-03T22:21:35.771Z,39.64
2022-08-03T22:24:05.220Z,40.50
2022-08-03T22:26:35.228Z,39.68
2022-08-03T22:29:07.325Z,40.38
2022-08-03T22:31:58.011Z,40.36
2022-08-03T22:34:26.690Z,40.19
2022-08-03T22:36:57.188Z,40.57
2022-08-03T22:39:29.532Z,40.80
2022-08-03T22:41:59.927Z,40.80
2022-08-03T22:44:27.532Z,41.09
2022-08-03T22:46:58.024Z,41.19
2022-08-03T22:49:27.043Z,41.21
2022-08-03T22:51:56.005Z,41.17
2022-08-03T22:54:23.166Z,41.32
2022-08-03T22:56:50.862Z,41.76
2022-08-03T22:59:40.437Z,41.34
2022-08-03T23:02:20.498Z,41.36
2022-08-03T23:04:55.036Z,41.46
2022-08-03T23:07:31.489Z,41.78
2022-08-03T23:10:00.469Z,42.03
2022-08-03T23:12:29.646Z,41.98
2022-08-03T23:15:00.885Z,42.10
2022-08-03T23:17:30.833Z,42.43
2022-08-03T23:20:05.111Z,42.92
2022-08-03T23:22:35.780Z,42.77
2022-08-03T23:25:04.671Z,43.78
2022-08-03T23:27:33.347Z,43.00
2022-08-03T23:30:01.567Z,43.13
2022-08-03T23:32:30.893Z,42.91
2022-08-03T23:35:20.971Z,43.41
2022-08-03T23:38:04.657Z,44.37
2022-08-03T23:40:36.820Z,43.66
2022-08-03T23:43:05.097Z,43.46
2022-08-03T23:45:35.024Z,43.82
2022-08-03T23:48:01.584Z,44.99
2022-08-03T23:50:40.359Z,44.80
2022-08-03T23:53:41.290Z,44.24
2022-08-03T23:56:37.141Z,44.59
2022-08-03T23:59:16.716Z,44.58
